sensor_id;sensor_type;location;lat;lon;timestamp;temperature;humidity
5881;DHT22;2966;52.598;10.928;2022-10-16T00:01:04;14.30;99.90
5881;DHT22;2966;52.598;10.928;2022-10-16T00:03:31;14.10;99.90
5881;DHT22;2966;52.598;10.928;2022-10-16T00:06:00;14.00;99.90
5881;DHT22;2966;52.598;10.928;2022-10-16T00:08:28;13.80;99.90
5881;DHT22;2966;52.598;10.928;2022-10-16T00:10:59;13.70;99.90
5881;DHT22;2966;52.598;10.928;2022-10-16T00:13:26;13.60;99.90
5881;DHT22;2966;52.598;10.928;2022-10-16T00:15:55;13.50;99.90
5881;DHT22;2966;52.598;10.928;2022-10-16T00:18:22;13.40;99.90
5881;DHT22;2966;52.598;10.928;2022-10-16T00:20:49;13.30;99.90
5881;DHT22;2966;52.598;10.928;2022-10-16T00:23:17;13.20;99.90
5881;DHT22;2966;52.598;10.928;2022-10-16T00:25:44;13.10;99.90
5881;DHT22;2966;52.598;10.928;2022-10-16T00:28:11;13.00;99.90
5881;DHT22;2966;52.598;10.928;2022-10-16T00:30:38;12.90;99.90
5881;DHT22;2966;52.598;10.928;2022-10-16T00:33:05;12.90;99.90
5881;DHT22;2966;52.598;10.928;2022-10-16T00:35:31;12.90;99.90
5881;DHT22;2966;52.598;10.928;2022-10-16T00:37:58;12.80;99.90
5881;DHT22;2966;52.598;10.928;2022-10-16T00:40:26;12.70;99.90
5881;DHT22;2966;52.598;10.928;2022-10-16T00:42:53;12.70;99.90
5881;DHT22;2966;52.598;10.928;2022-10-16T00:45:20;12.70;99.90
5881;DHT22;2966;52.598;10.928;2022-10-16T00:47:48;12.60;99.90
5881;DHT22;2966;52.598;10.928;2022-10-16T00:50:21;12.60;99.90
5881;DHT22;2966;52.598;10.928;2022-10-16T00:52:50;12.50;99.90
5881;DHT22;2966;52.598;10.928;2022-10-16T00:55:18;12.40;99.90
5881;DHT22;2966;52.598;10.928;2022-10-16T00:57:48;12.40;99.90
5881;DHT22;2966;52.598;10.928;2022-10-16T01:00:18;12.30;99.90
5881;DHT22;2966;52.598;10.928;2022-10-16T01:02:52;12.30;99.90
5881;DHT22;2966;52.598;10.928;2022-10-16T01:05:19;12.20;99.90
5881;DHT22;2966;52.598;10.928;2022-10-16T01:07:54;12.20;99.90
5881;DHT22;2966;52.598;10.928;2022-10-16T01:10:30;12.10;99.90
5881;DHT22;2966;52.598;10.928;2022-10-16T01:13:04;12.10;99.90
5881;DHT22;2966;52.598;10.928;2022-10-16T01:15:36;12.10;99.90
5881;DHT22;2966;52.598;10.928;2022-10-16T01:18:08;12.10;99.90
5881;DHT22;2966;52.598;10.928;2022-10-16T01:20:40;12.10;99.90
5881;DHT22;2966;52.598;10.928;2022-10-16T01:23:18;12.10;99.90
5881;DHT22;2966;52.598;10.928;2022-10-16T01:26:11;12.10;99.90
5881;DHT22;2966;52.598;10.928;2022-10-16T01:28:44;12.10;99.90
5881;DHT22;2966;52.598;10.928;2022-10-16T01:31:16;12.10;99.90
5881;DHT22;2966;52.598;10.928;2022-10-16T01:33:47;12.10;99.90
5881;DHT22;2966;52.598;10.928;2022-10-16T01:36:21;12.10;99.90
5881;DHT22;2966;52.598;10.928;2022-10-16T01:38:51;12.10;99.90
5881;DHT22;2966;52.598;10.928;2022-10-16T01:41:24;12.10;99.90
5881;DHT22;2966;52.598;10.928;2022-10-16T01:43:58;12.00;99.90
5881;DHT22;2966;52.598;10.928;2022-10-16T01:46:30;12.00;99.90
5881;DHT22;2966;52.598;10.928;2022-10-16T01:48:59;12.00;99.90
5881;DHT22;2966;52.598;10.928;2022-10-16T01:51:28;12.00;99.90
5881;DHT22;2966;52.598;10.928;2022-10-16T01:53:57;12.00;99.90
5881;DHT22;2966;52.598;10.928;2022-10-16T01:56:26;12.00;99.90
5881;DHT22;2966;52.598;10.928;2022-10-16T01:59:00;12.00;99.90
5881;DHT22;2966;52.598;10.928;2022-10-16T02:01:30;12.00;99.90
5881;DHT22;2966;52.598;10.928;2022-10-16T02:03:59;12.00;99.90
5881;DHT22;2966;52.598;10.928;2022-10-16T02:06:28;12.00;99.90
5881;DHT22;2966;52.598;10.928;2022-10-16T02:08:55;12.00;99.90
5881;DHT22;2966;52.598;10.928;2022-10-16T02:11:22;12.00;99.90
5881;DHT22;2966;52.598;10.928;2022-10-16T02:13:53;12.10;99.90
5881;DHT22;2966;52.598;10.928;2022-10-16T02:16:31;12.10;99.90
5881;DHT22;2966;52.598;10.928;2022-10-16T02:18:59;12.10;99.90
5881;DHT22;2966;52.598;10.928;2022-10-16T02:21:28;12.20;99.90
5881;DHT22;2966;52.598;10.928;2022-10-16T02:24:00;12.20;99.90
5881;DHT22;2966;52.598;10.928;2022-10-16T02:26:30;12.20;99.90
5881;DHT22;2966;52.598;10.928;2022-10-16T02:29:03;12.20;99.90
5881;DHT22;2966;52.598;10.928;2022-10-16T02:31:36;12.20;99.90
5881;DHT22;2966;52.598;10.928;2022-10-16T02:34:06;12.30;99.90
5881;DHT22;2966;52.598;10.928;2022-10-16T02:36:33;12.30;99.90
5881;DHT22;2966;52.598;10.928;2022-10-16T02:39:01;12.50;99.90
5881;DHT22;2966;52.598;10.928;2022-10-16T02:41:30;12.60;99.90
5881;DHT22;2966;52.598;10.928;2022-10-16T02:43:57;12.60;99.90
5881;DHT22;2966;52.598;10.928;2022-10-16T02:46:24;12.80;99.90
5881;DHT22;2966;52.598;10.928;2022-10-16T02:48:52;12.80;99.90
5881;DHT22;2966;52.598;10.928;2022-10-16T02:51:19;12.80;99.90
5881;DHT22;2966;52.598;10.928;2022-10-16T02:53:46;12.90;99.90
5881;DHT22;2966;52.598;10.928;2022-10-16T02:56:16;12.90;99.90
5881;DHT22;2966;52.598;10.928;2022-10-16T02:58:42;13.00;99.90
5881;DHT22;2966;52.598;10.928;2022-10-16T03:01:09;13.00;99.90
5881;DHT22;2966;52.598;10.928;2022-10-16T03:03:38;13.00;99.90
5881;DHT22;2966;52.598;10.928;2022-10-16T03:06:06;13.00;99.90
5881;DHT22;2966;52.598;10.928;2022-10-16T03:08:35;13.00;99.90
5881;DHT22;2966;52.598;10.928;2022-10-16T03:11:02;13.10;99.90
5881;DHT22;2966;52.598;10.928;2022-10-16T03:13:29;13.00;99.90
5881;DHT22;2966;52.598;10.928;2022-10-16T03:15:56;13.00;99.90
5881;DHT22;2966;52.598;10.928;2022-10-16T03:18:23;13.10;99.90
5881;DHT22;2966;52.598;10.928;2022-10-16T03:20:50;13.10;99.90
5881;DHT22;2966;52.598;10.928;2022-10-16T03:23:18;13.20;99.90
5881;DHT22;2966;52.598;10.928;2022-10-16T03:25:45;13.20;99.90
5881;DHT22;2966;52.598;10.928;2022-10-16T03:28:12;13.10;99.90
5881;DHT22;2966;52.598;10.928;2022-10-16T03:30:38;13.10;99.90
5881;DHT22;2966;52.598;10.928;2022-10-16T03:33:06;13.10;99.90
5881;DHT22;2966;52.598;10.928;2022-10-16T03:35:32;13.10;99.90
5881;DHT22;2966;52.598;10.928;2022-10-16T03:37:59;13.10;99.90
5881;DHT22;2966;52.598;10.928;2022-10-16T03:40:28;13.10;99.90
5881;DHT22;2966;52.598;10.928;2022-10-16T03:42:57;13.00;99.90
5881;DHT22;2966;52.598;10.928;2022-10-16T03:45:23;13.00;99.90
5881;DHT22;2966;52.598;10.928;2022-10-16T03:47:51;12.90;99.90
5881;DHT22;2966;52.598;10.928;2022-10-16T03:50:18;12.90;99.90
5881;DHT22;2966;52.598;10.928;2022-10-16T03:52:45;12.80;99.90
5881;DHT22;2966;52.598;10.928;2022-10-16T03:55:12;12.70;99.90
5881;DHT22;2966;52.598;10.928;2022-10-16T03:57:40;12.60;99.90
5881;DHT22;2966;52.598;10.928;2022-10-16T04:00:08;12.40;99.90
5881;DHT22;2966;52.598;10.928;2022-10-16T04:02:34;12.30;99.90
5881;DHT22;2966;52.598;10.928;2022-10-16T04:05:02;12.20;99.90
5881;DHT22;2966;52.598;10.928;2022-10-16T04:07:29;12.10;99.90
5881;DHT22;2966;52.598;10.928;2022-10-16T04:09:56;12.00;99.90
5881;DHT22;2966;52.598;10.928;2022-10-16T04:12:24;11.90;99.90
5881;DHT22;2966;52.598;10.928;2022-10-16T04:14:52;11.90;99.90
5881;DHT22;2966;52.598;10.928;2022-10-16T04:17:19;11.80;99.90
5881;DHT22;2966;52.598;10.928;2022-10-16T04:19:46;11.80;99.90
5881;DHT22;2966;52.598;10.928;2022-10-16T04:22:12;11.90;99.90
5881;DHT22;2966;52.598;10.928;2022-10-16T04:24:40;11.90;99.90
5881;DHT22;2966;52.598;10.928;2022-10-16T04:27:06;11.80;99.90
5881;DHT22;2966;52.598;10.928;2022-10-16T04:29:33;11.80;99.90
5881;DHT22;2966;52.598;10.928;2022-10-16T04:32:01;11.80;99.90
5881;DHT22;2966;52.598;10.928;2022-10-16T04:34:29;11.80;99.90
5881;DHT22;2966;52.598;10.928;2022-10-16T04:36:55;11.80;99.90
5881;DHT22;2966;52.598;10.928;2022-10-16T04:39:22;11.70;99.90
5881;DHT22;2966;52.598;10.928;2022-10-16T04:41:49;11.60;99.90
5881;DHT22;2966;52.598;10.928;2022-10-16T04:44:16;11.60;99.90
5881;DHT22;2966;52.598;10.928;2022-10-16T04:46:43;11.60;99.90
5881;DHT22;2966;52.598;10.928;2022-10-16T04:49:11;11.50;99.90
5881;DHT22;2966;52.598;10.928;2022-10-16T04:51:38;11.40;99.90
5881;DHT22;2966;52.598;10.928;2022-10-16T04:54:05;11.40;99.90
5881;DHT22;2966;52.598;10.928;2022-10-16T04:56:32;11.40;99.90
5881;DHT22;2966;52.598;10.928;2022-10-16T04:59:05;11.40;99.90
5881;DHT22;2966;52.598;10.928;2022-10-16T05:01:32;11.40;99.90
5881;DHT22;2966;52.598;10.928;2022-10-16T05:03:59;11.50;99.90
5881;DHT22;2966;52.598;10.928;2022-10-16T05:06:27;11.50;99.90
5881;DHT22;2966;52.598;10.928;2022-10-16T05:08:54;11.50;99.90
5881;DHT22;2966;52.598;10.928;2022-10-16T05:11:20;11.40;99.90
5881;DHT22;2966;52.598;10.928;2022-10-16T05:13:47;11.40;99.90
5881;DHT22;2966;52.598;10.928;2022-10-16T05:16:15;11.40;99.90
5881;DHT22;2966;52.598;10.928;2022-10-16T05:18:41;11.30;99.90
5881;DHT22;2966;52.598;10.928;2022-10-16T05:21:08;11.30;99.90
5881;DHT22;2966;52.598;10.928;2022-10-16T05:23:36;11.30;99.90
5881;DHT22;2966;52.598;10.928;2022-10-16T05:26:03;11.30;99.90
5881;DHT22;2966;52.598;10.928;2022-10-16T05:28:32;11.60;99.90
5881;DHT22;2966;52.598;10.928;2022-10-16T05:30:58;11.60;99.90
5881;DHT22;2966;52.598;10.928;2022-10-16T05:33:26;11.50;99.90
5881;DHT22;2966;52.598;10.928;2022-10-16T05:35:53;11.40;99.90
5881;DHT22;2966;52.598;10.928;2022-10-16T05:38:20;11.40;99.90
5881;DHT22;2966;52.598;10.928;2022-10-16T05:40:54;11.30;99.90
5881;DHT22;2966;52.598;10.928;2022-10-16T05:43:21;11.30;99.90
5881;DHT22;2966;52.598;10.928;2022-10-16T05:45:55;11.40;99.90
5881;DHT22;2966;52.598;10.928;2022-10-16T05:48:22;11.50;99.90
5881;DHT22;2966;52.598;10.928;2022-10-16T05:50:56;11.40;99.90
5881;DHT22;2966;52.598;10.928;2022-10-16T05:53:23;11.40;99.90
5881;DHT22;2966;52.598;10.928;2022-10-16T05:55:55;11.40;99.90
5881;DHT22;2966;52.598;10.928;2022-10-16T05:58:23;11.50;99.90
5881;DHT22;2966;52.598;10.928;2022-10-16T06:00:53;11.60;99.90
5881;DHT22;2966;52.598;10.928;2022-10-16T06:03:20;11.60;99.90
5881;DHT22;2966;52.598;10.928;2022-10-16T06:05:47;11.60;99.90
5881;DHT22;2966;52.598;10.928;2022-10-16T06:08:14;11.60;99.90
5881;DHT22;2966;52.598;10.928;2022-10-16T06:10:41;11.60;99.90
5881;DHT22;2966;52.598;10.928;2022-10-16T06:13:10;11.50;99.90
5881;DHT22;2966;52.598;10.928;2022-10-16T06:15:37;11.50;99.90
5881;DHT22;2966;52.598;10.928;2022-10-16T06:18:04;11.50;99.90
5881;DHT22;2966;52.598;10.928;2022-10-16T06:20:31;11.40;99.90
5881;DHT22;2966;52.598;10.928;2022-10-16T06:22:58;11.40;99.90
5881;DHT22;2966;52.598;10.928;2022-10-16T06:25:25;11.40;99.90
5881;DHT22;2966;52.598;10.928;2022-10-16T06:27:51;11.30;99.90
5881;DHT22;2966;52.598;10.928;2022-10-16T06:30:20;11.30;99.90
5881;DHT22;2966;52.598;10.928;2022-10-16T06:32:46;11.30;99.90
5881;DHT22;2966;52.598;10.928;2022-10-16T06:35:13;11.50;99.90
5881;DHT22;2966;52.598;10.928;2022-10-16T06:37:40;11.60;99.90
5881;DHT22;2966;52.598;10.928;2022-10-16T06:40:10;11.70;99.90
5881;DHT22;2966;52.598;10.928;2022-10-16T06:42:39;11.70;99.90
5881;DHT22;2966;52.598;10.928;2022-10-16T06:45:07;11.80;99.90
5881;DHT22;2966;52.598;10.928;2022-10-16T06:47:36;11.90;99.90
5881;DHT22;2966;52.598;10.928;2022-10-16T06:50:04;12.00;99.90
5881;DHT22;2966;52.598;10.928;2022-10-16T06:52:32;12.20;99.90
5881;DHT22;2966;52.598;10.928;2022-10-16T06:55:00;12.30;99.90
5881;DHT22;2966;52.598;10.928;2022-10-16T06:57:28;12.30;99.90
5881;DHT22;2966;52.598;10.928;2022-10-16T06:59:55;12.30;99.90
5881;DHT22;2966;52.598;10.928;2022-10-16T07:02:21;12.30;99.90
5881;DHT22;2966;52.598;10.928;2022-10-16T07:04:50;12.40;99.90
5881;DHT22;2966;52.598;10.928;2022-10-16T07:07:16;12.50;99.90
5881;DHT22;2966;52.598;10.928;2022-10-16T07:09:43;12.60;99.90
5881;DHT22;2966;52.598;10.928;2022-10-16T07:12:10;12.70;99.90
5881;DHT22;2966;52.598;10.928;2022-10-16T07:14:37;12.80;99.90
5881;DHT22;2966;52.598;10.928;2022-10-16T07:17:04;12.70;99.90
5881;DHT22;2966;52.598;10.928;2022-10-16T07:19:30;12.70;99.90
5881;DHT22;2966;52.598;10.928;2022-10-16T07:21:59;12.80;99.90
5881;DHT22;2966;52.598;10.928;2022-10-16T07:24:25;12.80;99.90
5881;DHT22;2966;52.598;10.928;2022-10-16T07:26:52;13.00;99.90
5881;DHT22;2966;52.598;10.928;2022-10-16T07:29:20;13.10;99.90
5881;DHT22;2966;52.598;10.928;2022-10-16T07:31:48;13.20;99.90
5881;DHT22;2966;52.598;10.928;2022-10-16T07:34:16;13.40;99.90
5881;DHT22;2966;52.598;10.928;2022-10-16T07:36:43;13.50;99.90
5881;DHT22;2966;52.598;10.928;2022-10-16T07:39:16;13.60;99.90
5881;DHT22;2966;52.598;10.928;2022-10-16T07:41:43;13.80;99.90
5881;DHT22;2966;52.598;10.928;2022-10-16T07:44:09;14.00;99.90
5881;DHT22;2966;52.598;10.928;2022-10-16T07:46:36;14.20;99.90
5881;DHT22;2966;52.598;10.928;2022-10-16T07:49:03;14.30;99.90
5881;DHT22;2966;52.598;10.928;2022-10-16T07:51:30;14.50;99.90
5881;DHT22;2966;52.598;10.928;2022-10-16T07:53:57;14.60;99.90
5881;DHT22;2966;52.598;10.928;2022-10-16T07:56:25;14.80;99.90
5881;DHT22;2966;52.598;10.928;2022-10-16T07:58:52;14.80;99.90
5881;DHT22;2966;52.598;10.928;2022-10-16T08:01:19;14.90;99.90
5881;DHT22;2966;52.598;10.928;2022-10-16T08:03:47;15.00;99.90
5881;DHT22;2966;52.598;10.928;2022-10-16T08:06:15;15.10;99.90
5881;DHT22;2966;52.598;10.928;2022-10-16T08:08:42;15.20;99.90
5881;DHT22;2966;52.598;10.928;2022-10-16T08:11:10;15.30;99.90
5881;DHT22;2966;52.598;10.928;2022-10-16T08:13:38;15.40;99.90
5881;DHT22;2966;52.598;10.928;2022-10-16T08:16:05;15.60;99.90
5881;DHT22;2966;52.598;10.928;2022-10-16T08:18:33;15.70;99.90
5881;DHT22;2966;52.598;10.928;2022-10-16T08:21:01;15.90;99.90
5881;DHT22;2966;52.598;10.928;2022-10-16T08:23:28;15.90;99.90
5881;DHT22;2966;52.598;10.928;2022-10-16T08:26:01;15.90;99.90
5881;DHT22;2966;52.598;10.928;2022-10-16T08:28:28;15.80;99.90
5881;DHT22;2966;52.598;10.928;2022-10-16T08:30:56;15.70;99.90
5881;DHT22;2966;52.598;10.928;2022-10-16T08:33:30;15.70;99.90
5881;DHT22;2966;52.598;10.928;2022-10-16T08:35:57;15.90;99.90
5881;DHT22;2966;52.598;10.928;2022-10-16T08:38:24;16.00;99.90
5881;DHT22;2966;52.598;10.928;2022-10-16T08:40:51;16.20;99.90
5881;DHT22;2966;52.598;10.928;2022-10-16T08:43:27;16.30;99.90
5881;DHT22;2966;52.598;10.928;2022-10-16T08:46:15;16.20;99.90
5881;DHT22;2966;52.598;10.928;2022-10-16T08:48:48;16.20;99.90
5881;DHT22;2966;52.598;10.928;2022-10-16T08:51:21;16.50;99.90
5881;DHT22;2966;52.598;10.928;2022-10-16T08:53:52;16.60;99.90
5881;DHT22;2966;52.598;10.928;2022-10-16T08:56:20;16.60;99.90
5881;DHT22;2966;52.598;10.928;2022-10-16T08:58:48;16.40;99.90
5881;DHT22;2966;52.598;10.928;2022-10-16T09:01:17;16.20;99.90
5881;DHT22;2966;52.598;10.928;2022-10-16T09:04:20;16.20;99.90
5881;DHT22;2966;52.598;10.928;2022-10-16T09:06:55;16.50;99.90
5881;DHT22;2966;52.598;10.928;2022-10-16T09:09:43;16.60;99.90
5881;DHT22;2966;52.598;10.928;2022-10-16T09:12:24;16.80;99.90
5881;DHT22;2966;52.598;10.928;2022-10-16T09:15:01;16.90;99.90
5881;DHT22;2966;52.598;10.928;2022-10-16T09:17:37;17.00;99.90
5881;DHT22;2966;52.598;10.928;2022-10-16T09:20:17;17.10;99.90
5881;DHT22;2966;52.598;10.928;2022-10-16T09:22:46;17.10;99.90
5881;DHT22;2966;52.598;10.928;2022-10-16T09:25:14;17.30;99.90
5881;DHT22;2966;52.598;10.928;2022-10-16T09:27:44;17.30;99.90
5881;DHT22;2966;52.598;10.928;2022-10-16T09:30:14;17.30;99.90
5881;DHT22;2966;52.598;10.928;2022-10-16T09:32:43;17.30;99.90
5881;DHT22;2966;52.598;10.928;2022-10-16T09:35:14;17.30;99.90
5881;DHT22;2966;52.598;10.928;2022-10-16T09:37:43;17.20;99.90
5881;DHT22;2966;52.598;10.928;2022-10-16T09:40:24;17.10;99.90
5881;DHT22;2966;52.598;10.928;2022-10-16T09:43:02;17.20;99.90
5881;DHT22;2966;52.598;10.928;2022-10-16T09:45:29;17.10;99.90
5881;DHT22;2966;52.598;10.928;2022-10-16T09:48:00;17.20;99.90
5881;DHT22;2966;52.598;10.928;2022-10-16T09:50:28;17.10;99.90
5881;DHT22;2966;52.598;10.928;2022-10-16T09:53:07;17.00;99.90
5881;DHT22;2966;52.598;10.928;2022-10-16T09:55:35;17.30;99.90
5881;DHT22;2966;52.598;10.928;2022-10-16T09:58:02;17.50;99.90
5881;DHT22;2966;52.598;10.928;2022-10-16T10:00:28;17.60;99.90
5881;DHT22;2966;52.598;10.928;2022-10-16T10:02:55;17.70;99.90
5881;DHT22;2966;52.598;10.928;2022-10-16T10:05:25;17.90;99.90
5881;DHT22;2966;52.598;10.928;2022-10-16T10:07:55;17.80;99.90
5881;DHT22;2966;52.598;10.928;2022-10-16T10:10:28;17.80;99.90
5881;DHT22;2966;52.598;10.928;2022-10-16T10:12:56;17.80;99.90
5881;DHT22;2966;52.598;10.928;2022-10-16T10:15:23;18.00;99.90
5881;DHT22;2966;52.598;10.928;2022-10-16T10:17:53;18.00;99.90
5881;DHT22;2966;52.598;10.928;2022-10-16T10:20:26;18.10;99.90
5881;DHT22;2966;52.598;10.928;2022-10-16T10:22:54;18.20;99.90
5881;DHT22;2966;52.598;10.928;2022-10-16T10:25:41;18.30;99.90
5881;DHT22;2966;52.598;10.928;2022-10-16T10:28:35;18.40;99.90
5881;DHT22;2966;52.598;10.928;2022-10-16T10:31:09;18.30;99.90
5881;DHT22;2966;52.598;10.928;2022-10-16T10:33:44;18.40;99.90
5881;DHT22;2966;52.598;10.928;2022-10-16T10:36:26;18.20;99.90
5881;DHT22;2966;52.598;10.928;2022-10-16T10:38:58;18.00;99.90
5881;DHT22;2966;52.598;10.928;2022-10-16T10:41:48;18.00;99.90
5881;DHT22;2966;52.598;10.928;2022-10-16T10:44:26;18.10;99.90
5881;DHT22;2966;52.598;10.928;2022-10-16T10:47:01;18.30;99.90
5881;DHT22;2966;52.598;10.928;2022-10-16T10:49:43;18.30;99.90
5881;DHT22;2966;52.598;10.928;2022-10-16T10:52:32;18.30;99.90
5881;DHT22;2966;52.598;10.928;2022-10-16T10:55:08;18.40;99.90
5881;DHT22;2966;52.598;10.928;2022-10-16T10:57:43;18.40;99.90
5881;DHT22;2966;52.598;10.928;2022-10-16T11:00:20;18.60;99.90
5881;DHT22;2966;52.598;10.928;2022-10-16T11:02:50;18.20;99.90
5881;DHT22;2966;52.598;10.928;2022-10-16T11:05:40;18.20;99.90
5881;DHT22;2966;52.598;10.928;2022-10-16T11:08:13;18.00;99.90
5881;DHT22;2966;52.598;10.928;2022-10-16T11:10:50;17.80;99.90
5881;DHT22;2966;52.598;10.928;2022-10-16T11:13:37;17.80;99.90
5881;DHT22;2966;52.598;10.928;2022-10-16T11:16:17;17.70;99.90
5881;DHT22;2966;52.598;10.928;2022-10-16T11:18:50;18.00;99.90
5881;DHT22;2966;52.598;10.928;2022-10-16T11:21:19;17.90;99.90
5881;DHT22;2966;52.598;10.928;2022-10-16T11:23:53;17.70;99.90
5881;DHT22;2966;52.598;10.928;2022-10-16T11:26:26;17.90;99.90
5881;DHT22;2966;52.598;10.928;2022-10-16T11:28:54;18.00;99.90
5881;DHT22;2966;52.598;10.928;2022-10-16T11:31:26;18.20;99.90
5881;DHT22;2966;52.598;10.928;2022-10-16T11:34:01;18.10;99.90
5881;DHT22;2966;52.598;10.928;2022-10-16T11:36:33;18.20;99.90
5881;DHT22;2966;52.598;10.928;2022-10-16T11:39:11;18.30;99.90
5881;DHT22;2966;52.598;10.928;2022-10-16T11:41:45;18.50;99.90
5881;DHT22;2966;52.598;10.928;2022-10-16T11:44:24;18.50;99.90
5881;DHT22;2966;52.598;10.928;2022-10-16T11:47:01;18.60;99.90
5881;DHT22;2966;52.598;10.928;2022-10-16T11:49:33;18.60;99.90
5881;DHT22;2966;52.598;10.928;2022-10-16T11:52:06;18.30;99.90
5881;DHT22;2966;52.598;10.928;2022-10-16T11:54:40;18.40;99.90
5881;DHT22;2966;52.598;10.928;2022-10-16T11:57:13;18.50;99.90
5881;DHT22;2966;52.598;10.928;2022-10-16T11:59:45;18.40;99.90
5881;DHT22;2966;52.598;10.928;2022-10-16T12:02:44;18.60;99.90
5881;DHT22;2966;52.598;10.928;2022-10-16T12:05:25;18.60;99.90
5881;DHT22;2966;52.598;10.928;2022-10-16T12:08:04;18.80;99.90
5881;DHT22;2966;52.598;10.928;2022-10-16T12:10:35;18.90;99.90
5881;DHT22;2966;52.598;10.928;2022-10-16T12:13:03;18.80;99.90
5881;DHT22;2966;52.598;10.928;2022-10-16T12:15:32;18.80;99.90
5881;DHT22;2966;52.598;10.928;2022-10-16T12:18:00;18.90;99.90
5881;DHT22;2966;52.598;10.928;2022-10-16T12:20:29;18.80;99.90
5881;DHT22;2966;52.598;10.928;2022-10-16T12:23:03;18.80;99.90
5881;DHT22;2966;52.598;10.928;2022-10-16T12:25:32;18.70;99.90
5881;DHT22;2966;52.598;10.928;2022-10-16T12:28:06;18.80;99.90
5881;DHT22;2966;52.598;10.928;2022-10-16T12:30:35;18.50;99.90
5881;DHT22;2966;52.598;10.928;2022-10-16T12:33:04;18.50;99.90
5881;DHT22;2966;52.598;10.928;2022-10-16T12:35:34;18.50;99.90
5881;DHT22;2966;52.598;10.928;2022-10-16T12:38:07;18.60;99.90
5881;DHT22;2966;52.598;10.928;2022-10-16T12:40:37;18.70;99.90
5881;DHT22;2966;52.598;10.928;2022-10-16T12:43:26;18.70;99.90
5881;DHT22;2966;52.598;10.928;2022-10-16T12:46:05;18.70;99.90
5881;DHT22;2966;52.598;10.928;2022-10-16T12:48:36;18.80;99.90
5881;DHT22;2966;52.598;10.928;2022-10-16T12:51:10;18.80;99.90
5881;DHT22;2966;52.598;10.928;2022-10-16T12:53:37;18.90;99.90
5881;DHT22;2966;52.598;10.928;2022-10-16T12:56:12;18.90;99.90
5881;DHT22;2966;52.598;10.928;2022-10-16T12:58:58;18.90;99.90
5881;DHT22;2966;52.598;10.928;2022-10-16T13:01:41;18.90;99.90
5881;DHT22;2966;52.598;10.928;2022-10-16T13:04:31;18.90;99.90
5881;DHT22;2966;52.598;10.928;2022-10-16T13:07:22;19.20;99.90
5881;DHT22;2966;52.598;10.928;2022-10-16T13:10:02;19.30;99.90
5881;DHT22;2966;52.598;10.928;2022-10-16T13:12:45;19.30;99.90
5881;DHT22;2966;52.598;10.928;2022-10-16T13:15:27;18.90;99.90
5881;DHT22;2966;52.598;10.928;2022-10-16T13:18:01;18.60;99.90
5881;DHT22;2966;52.598;10.928;2022-10-16T13:20:39;18.40;99.90
5881;DHT22;2966;52.598;10.928;2022-10-16T13:23:15;18.20;99.90
5881;DHT22;2966;52.598;10.928;2022-10-16T13:25:53;18.30;99.90
5881;DHT22;2966;52.598;10.928;2022-10-16T13:28:28;18.50;99.90
5881;DHT22;2966;52.598;10.928;2022-10-16T13:30:58;18.70;99.90
5881;DHT22;2966;52.598;10.928;2022-10-16T13:33:32;18.70;99.90
5881;DHT22;2966;52.598;10.928;2022-10-16T13:36:00;18.80;99.90
5881;DHT22;2966;52.598;10.928;2022-10-16T13:38:28;18.80;99.90
5881;DHT22;2966;52.598;10.928;2022-10-16T13:40:59;18.70;99.90
5881;DHT22;2966;52.598;10.928;2022-10-16T13:43:31;18.80;99.90
5881;DHT22;2966;52.598;10.928;2022-10-16T13:46:03;18.80;99.90
5881;DHT22;2966;52.598;10.928;2022-10-16T13:48:32;18.80;99.90
5881;DHT22;2966;52.598;10.928;2022-10-16T13:51:04;18.90;99.90
5881;DHT22;2966;52.598;10.928;2022-10-16T13:53:33;19.00;99.90
5881;DHT22;2966;52.598;10.928;2022-10-16T13:56:03;18.90;99.90
5881;DHT22;2966;52.598;10.928;2022-10-16T13:58:30;19.00;99.90
5881;DHT22;2966;52.598;10.928;2022-10-16T14:01:01;18.90;99.90
5881;DHT22;2966;52.598;10.928;2022-10-16T14:03:29;18.90;99.90
5881;DHT22;2966;52.598;10.928;2022-10-16T14:05:58;18.90;99.90
5881;DHT22;2966;52.598;10.928;2022-10-16T14:08:27;18.80;99.90
5881;DHT22;2966;52.598;10.928;2022-10-16T14:10:56;18.80;99.90
5881;DHT22;2966;52.598;10.928;2022-10-16T14:13:31;18.80;99.90
5881;DHT22;2966;52.598;10.928;2022-10-16T14:16:06;18.80;99.90
5881;DHT22;2966;52.598;10.928;2022-10-16T14:18:34;18.80;99.90
5881;DHT22;2966;52.598;10.928;2022-10-16T14:21:05;18.70;99.90
5881;DHT22;2966;52.598;10.928;2022-10-16T14:23:35;18.60;99.90
5881;DHT22;2966;52.598;10.928;2022-10-16T14:26:11;18.60;99.90
5881;DHT22;2966;52.598;10.928;2022-10-16T14:28:40;18.60;99.90
5881;DHT22;2966;52.598;10.928;2022-10-16T14:31:25;18.60;99.90
5881;DHT22;2966;52.598;10.928;2022-10-16T14:33:53;18.60;99.90
5881;DHT22;2966;52.598;10.928;2022-10-16T14:36:20;18.60;99.90
5881;DHT22;2966;52.598;10.928;2022-10-16T14:38:52;18.50;99.90
5881;DHT22;2966;52.598;10.928;2022-10-16T14:41:21;18.50;99.90
5881;DHT22;2966;52.598;10.928;2022-10-16T14:43:51;18.50;99.90
5881;DHT22;2966;52.598;10.928;2022-10-16T14:46:22;18.40;99.90
5881;DHT22;2966;52.598;10.928;2022-10-16T14:48:59;18.50;99.90
5881;DHT22;2966;52.598;10.928;2022-10-16T14:51:27;18.50;99.90
5881;DHT22;2966;52.598;10.928;2022-10-16T14:53:57;18.40;99.90
5881;DHT22;2966;52.598;10.928;2022-10-16T14:56:25;18.30;99.90
5881;DHT22;2966;52.598;10.928;2022-10-16T14:58:53;18.30;99.90
5881;DHT22;2966;52.598;10.928;2022-10-16T15:01:23;18.30;99.90
5881;DHT22;2966;52.598;10.928;2022-10-16T15:03:50;18.20;99.90
5881;DHT22;2966;52.598;10.928;2022-10-16T15:06:19;18.10;99.90
5881;DHT22;2966;52.598;10.928;2022-10-16T15:08:46;18.10;99.90
5881;DHT22;2966;52.598;10.928;2022-10-16T15:11:15;18.00;99.90
5881;DHT22;2966;52.598;10.928;2022-10-16T15:13:42;17.90;99.90
5881;DHT22;2966;52.598;10.928;2022-10-16T15:16:11;17.80;99.90
5881;DHT22;2966;52.598;10.928;2022-10-16T15:18:40;17.80;99.90
5881;DHT22;2966;52.598;10.928;2022-10-16T15:21:07;17.70;99.90
5881;DHT22;2966;52.598;10.928;2022-10-16T15:23:34;17.60;99.90
5881;DHT22;2966;52.598;10.928;2022-10-16T15:26:01;17.60;99.90
5881;DHT22;2966;52.598;10.928;2022-10-16T15:28:28;17.60;99.90
5881;DHT22;2966;52.598;10.928;2022-10-16T15:30:56;17.60;99.90
5881;DHT22;2966;52.598;10.928;2022-10-16T15:33:25;17.60;99.90
5881;DHT22;2966;52.598;10.928;2022-10-16T15:35:59;17.40;99.90
5881;DHT22;2966;52.598;10.928;2022-10-16T15:38:27;17.30;99.90
5881;DHT22;2966;52.598;10.928;2022-10-16T15:40:55;17.20;99.90
5881;DHT22;2966;52.598;10.928;2022-10-16T15:43:22;17.10;99.90
5881;DHT22;2966;52.598;10.928;2022-10-16T15:45:59;17.10;99.90
5881;DHT22;2966;52.598;10.928;2022-10-16T15:48:26;17.00;99.90
5881;DHT22;2966;52.598;10.928;2022-10-16T15:50:53;16.90;99.90
5881;DHT22;2966;52.598;10.928;2022-10-16T15:53:21;16.80;99.90
5881;DHT22;2966;52.598;10.928;2022-10-16T15:55:48;16.60;99.90
5881;DHT22;2966;52.598;10.928;2022-10-16T15:58:15;16.40;99.90
5881;DHT22;2966;52.598;10.928;2022-10-16T16:00:42;16.20;99.90
5881;DHT22;2966;52.598;10.928;2022-10-16T16:03:08;16.10;99.90
5881;DHT22;2966;52.598;10.928;2022-10-16T16:05:38;16.20;99.90